Time;durP1;ratioP1;P1;durP2;ratioP2;P2;SDS_P1;SDS_P2;PMS_P1;PMS_P2;Temp;Humidity;BMP_temperature;BMP_pressure;BME280_temperature;BME280_humidity;BME280_pressure;Samples;Min_cycle;Max_cycle;Signal;HPM_P1;HPM_P2
2023/05/14 00:01:26;;;;;;;15.07;9.93;;;;;;;;;;5053198;28;20063;-76
2023/05/14 00:03:52;;;;;;;17.88;9.98;;;;;;;;;;5052449;28;20053;-76
2023/05/14 00:06:18;;;;;;;20.85;10.52;;;;;;;;;;5053081;28;20133;-76
2023/05/14 00:08:44;;;;;;;15.15;9.68;;;;;;;;;;5052881;28;20060;-76
2023/05/14 00:11:10;;;;;;;23.23;10.50;;;;;;;;;;5056817;28;20079;-76
2023/05/14 00:13:37;;;;;;;17.63;9.82;;;;;;;;;;5071471;28;20076;-76
2023/05/14 00:16:03;;;;;;;18.05;10.30;;;;;;;;;;5071099;28;20044;-76
2023/05/14 00:18:29;;;;;;;14.88;9.70;;;;;;;;;;5060384;28;20041;-76
2023/05/14 00:20:55;;;;;;;18.05;11.48;;;;;;;;;;5058367;28;20037;-76
2023/05/14 00:23:21;;;;;;;18.50;11.40;;;;;;;;;;5072091;28;20094;-76
2023/05/14 00:25:47;;;;;;;15.45;11.40;;;;;;;;;;5060156;28;20418;-76
2023/05/14 00:28:13;;;;;;;16.00;10.25;;;;;;;;;;5059607;28;20045;-75
2023/05/14 00:30:40;;;;;;;19.77;10.65;;;;;;;;;;5050686;28;20094;-75
2023/05/14 00:33:06;;;;;;;19.77;10.15;;;;;;;;;;5059026;28;20048;-76
2023/05/14 00:35:34;;;;;;;15.25;9.98;;;;;;;;;;5065915;28;20048;-77
2023/05/14 00:38:01;;;;;;;18.20;9.77;;;;;;;;;;5082342;28;20451;-76
2023/05/14 00:40:27;;;;;;;18.25;9.10;;;;;;;;;;5044403;28;20048;-76
2023/05/14 00:42:54;;;;;;;13.93;9.43;;;;;;;;;;5044344;28;20051;-76
2023/05/14 00:45:20;;;;;;;14.85;8.70;;;;;;;;;;5060804;28;20474;-76
2023/05/14 00:47:47;;;;;;;13.65;8.70;;;;;;;;;;5025244;28;20040;-76
2023/05/14 00:50:14;;;;;;;12.98;8.35;;;;;;;;;;5060204;28;20041;-76
2023/05/14 00:52:40;;;;;;;19.55;8.93;;;;;;;;;;5061358;28;20041;-76
2023/05/14 00:55:07;;;;;;;14.70;8.93;;;;;;;;;;5072613;28;20048;-75
2023/05/14 00:57:34;;;;;;;18.42;9.52;;;;;;;;;;5078356;28;20042;-76
2023/05/14 01:00:01;;;;;;;17.88;9.25;;;;;;;;;;5079229;28;20102;-76
2023/05/14 01:02:27;;;;;;;15.32;8.98;;;;;;;;;;5059287;28;20498;-76
2023/05/14 01:04:53;;;;;;;16.60;9.43;;;;;;;;;;5067164;28;20045;-76
2023/05/14 01:07:22;;;;;;;22.05;11.15;;;;;;;;;;5077740;28;20059;-76
2023/05/14 01:09:54;;;;;;;19.05;13.13;;;;;;;;;;5056159;28;20514;-76
2023/05/14 01:12:39;;;;;;;26.65;13.90;;;;;;;;;;5059391;28;20051;-75
2023/05/14 01:15:21;;;;;;;24.13;13.90;;;;;;;;;;5077513;28;20044;-75
2023/05/14 01:17:56;;;;;;;25.55;13.70;;;;;;;;;;5077908;28;20049;-76
2023/05/14 01:20:22;;;;;;;21.58;13.30;;;;;;;;;;5060236;28;20390;-76
2023/05/14 01:22:48;;;;;;;23.15;13.68;;;;;;;;;;5056003;28;20417;-76
2023/05/14 01:25:14;;;;;;;23.48;12.45;;;;;;;;;;5076949;28;20070;-76
2023/05/14 01:27:44;;;;;;;19.73;10.95;;;;;;;;;;5058684;28;20489;-76
2023/05/14 01:30:16;;;;;;;17.77;11.13;;;;;;;;;;5061145;28;20383;-76
2023/05/14 01:32:43;;;;;;;18.35;10.75;;;;;;;;;;5070980;28;20033;-76
2023/05/14 01:35:10;;;;;;;20.17;11.05;;;;;;;;;;5062964;28;20083;-76
2023/05/14 01:37:38;;;;;;;21.63;11.10;;;;;;;;;;5062139;28;20055;-76
2023/05/14 01:40:04;;;;;;;21.75;10.82;;;;;;;;;;5071422;28;20040;-76
2023/05/14 01:42:30;;;;;;;22.02;10.82;;;;;;;;;;5075762;28;20514;-75
2023/05/14 01:44:56;;;;;;;18.20;10.48;;;;;;;;;;5071080;28;20041;-76
2023/05/14 01:47:23;;;;;;;19.58;11.55;;;;;;;;;;5068223;28;20378;-76
2023/05/14 01:49:49;;;;;;;19.52;11.50;;;;;;;;;;5043097;28;20398;-76
2023/05/14 01:52:15;;;;;;;19.80;11.55;;;;;;;;;;5066841;28;20036;-76
2023/05/14 01:54:41;;;;;;;23.73;12.25;;;;;;;;;;5061690;28;20144;-76
2023/05/14 01:57:07;;;;;;;22.65;13.52;;;;;;;;;;5075466;28;20071;-76
2023/05/14 01:59:33;;;;;;;23.55;13.80;;;;;;;;;;5074763;28;20076;-76
2023/05/14 02:01:59;;;;;;;21.40;12.52;;;;;;;;;;5057403;28;20163;-76
2023/05/14 02:04:25;;;;;;;26.27;13.20;;;;;;;;;;5072456;28;20085;-76
2023/05/14 02:06:51;;;;;;;21.52;12.80;;;;;;;;;;5070285;28;20051;-76
2023/05/14 02:09:17;;;;;;;23.02;13.32;;;;;;;;;;5052191;28;20059;-76
2023/05/14 02:11:43;;;;;;;29.33;12.82;;;;;;;;;;5054918;28;20047;-76
2023/05/14 02:14:09;;;;;;;25.73;13.52;;;;;;;;;;5054923;28;20120;-76
2023/05/14 02:16:35;;;;;;;21.88;13.50;;;;;;;;;;5054964;28;20041;-76
2023/05/14 02:19:01;;;;;;;25.52;13.57;;;;;;;;;;5030535;28;20040;-76
2023/05/14 02:21:27;;;;;;;24.90;13.07;;;;;;;;;;5055180;28;20068;-76
2023/05/14 02:23:54;;;;;;;31.25;13.05;;;;;;;;;;5043063;28;20087;-76
2023/05/14 02:26:21;;;;;;;24.67;12.55;;;;;;;;;;5077261;28;20058;-76
2023/05/14 02:28:47;;;;;;;22.58;12.55;;;;;;;;;;5043520;28;20048;-76
2023/05/14 02:31:13;;;;;;;24.15;10.90;;;;;;;;;;5076661;28;20052;-76
2023/05/14 02:33:39;;;;;;;22.50;11.68;;;;;;;;;;5055824;28;20552;-76
2023/05/14 02:36:05;;;;;;;23.17;12.15;;;;;;;;;;5074858;28;20049;-76
2023/05/14 02:38:31;;;;;;;26.05;11.95;;;;;;;;;;5055128;28;20060;-76
2023/05/14 02:40:57;;;;;;;17.35;10.48;;;;;;;;;;5036440;28;20048;-76
2023/05/14 02:43:23;;;;;;;25.38;11.57;;;;;;;;;;5049579;28;20040;-76
2023/05/14 02:45:49;;;;;;;23.08;11.43;;;;;;;;;;5056223;28;20052;-76
2023/05/14 02:48:15;;;;;;;20.35;11.00;;;;;;;;;;5069924;28;20043;-76
2023/05/14 02:50:41;;;;;;;22.88;10.85;;;;;;;;;;5073916;28;20068;-76
2023/05/14 02:53:07;;;;;;;19.35;11.25;;;;;;;;;;5055368;28;20093;-76
2023/05/14 02:55:34;;;;;;;22.27;10.77;;;;;;;;;;5039368;28;20493;-76
2023/05/14 02:58:00;;;;;;;22.52;11.52;;;;;;;;;;5040107;28;20119;-76
2023/05/14 03:00:26;;;;;;;23.90;12.43;;;;;;;;;;5069509;28;20076;-76
2023/05/14 03:02:52;;;;;;;24.67;11.68;;;;;;;;;;5052435;28;20083;-75
2023/05/14 03:05:18;;;;;;;20.75;10.95;;;;;;;;;;5037431;28;20048;-76
2023/05/14 03:07:44;;;;;;;21.10;11.23;;;;;;;;;;5035667;28;20423;-76
2023/05/14 03:10:11;;;;;;;19.25;11.50;;;;;;;;;;5050853;28;20471;-76
2023/05/14 03:12:37;;;;;;;22.98;11.07;;;;;;;;;;5036295;28;20174;-76
2023/05/14 03:15:03;;;;;;;18.52;9.88;;;;;;;;;;5053748;28;20037;-76
2023/05/14 03:17:29;;;;;;;23.02;10.70;;;;;;;;;;5038937;28;20116;-76
2023/05/14 03:19:55;;;;;;;23.90;11.40;;;;;;;;;;5054133;28;20171;-76
2023/05/14 03:22:21;;;;;;;21.05;11.65;;;;;;;;;;5035746;28;20079;-76
2023/05/14 03:24:47;;;;;;;26.35;12.55;;;;;;;;;;5036021;28;20045;-76
2023/05/14 03:27:13;;;;;;;24.92;13.43;;;;;;;;;;5047719;28;20049;-76
2023/05/14 03:29:39;;;;;;;27.00;13.00;;;;;;;;;;5054284;28;20401;-76
2023/05/14 03:32:05;;;;;;;29.95;14.77;;;;;;;;;;5071580;28;20496;-76
2023/05/14 03:34:32;;;;;;;30.10;16.05;;;;;;;;;;5035842;28;20049;-76
2023/05/14 03:36:58;;;;;;;31.42;15.63;;;;;;;;;;5051523;28;20103;-76
2023/05/14 03:39:24;;;;;;;27.30;14.73;;;;;;;;;;5038690;28;20441;-76
2023/05/14 03:41:50;;;;;;;26.38;13.98;;;;;;;;;;5035706;28;20045;-76
2023/05/14 03:44:16;;;;;;;28.85;12.93;;;;;;;;;;5035538;28;20056;-76
2023/05/14 03:46:42;;;;;;;25.10;11.95;;;;;;;;;;5062976;28;20570;-76
2023/05/14 03:49:08;;;;;;;24.10;11.60;;;;;;;;;;5053840;28;20064;-76
2023/05/14 03:51:34;;;;;;;18.48;10.15;;;;;;;;;;5046062;28;20052;-76
2023/05/14 03:54:01;;;;;;;24.55;10.43;;;;;;;;;;5054701;28;20084;-76
2023/05/14 03:56:27;;;;;;;20.25;9.55;;;;;;;;;;5070350;28;20036;-76
2023/05/14 03:58:53;;;;;;;21.33;9.85;;;;;;;;;;5073035;28;20510;-76
2023/05/14 04:01:19;;;;;;;20.88;9.65;;;;;;;;;;5073439;28;20048;-76
2023/05/14 04:03:45;;;;;;;22.35;10.35;;;;;;;;;;5064777;28;20115;-76
2023/05/14 04:06:11;;;;;;;21.77;9.85;;;;;;;;;;5053293;28;20041;-76
2023/05/14 04:08:37;;;;;;;18.65;10.48;;;;;;;;;;5053039;28;20183;-76
2023/05/14 04:11:03;;;;;;;19.55;10.45;;;;;;;;;;5052964;28;20060;-76
2023/05/14 04:13:29;;;;;;;23.00;10.48;;;;;;;;;;5055414;28;20429;-76
2023/05/14 04:15:55;;;;;;;15.68;8.68;;;;;;;;;;5064347;28;20043;-76
2023/05/14 04:18:21;;;;;;;16.63;8.52;;;;;;;;;;5071925;28;20063;-76
2023/05/14 04:20:47;;;;;;;19.83;8.38;;;;;;;;;;5072353;28;20041;-76
2023/05/14 04:23:13;;;;;;;14.48;8.88;;;;;;;;;;5049472;28;20043;-76
2023/05/14 04:25:39;;;;;;;15.70;9.32;;;;;;;;;;5049143;28;20132;-76
2023/05/14 04:28:05;;;;;;;20.80;9.70;;;;;;;;;;5034521;28;20037;-76
2023/05/14 04:30:31;;;;;;;17.27;8.88;;;;;;;;;;5034688;28;20057;-76
2023/05/14 04:32:57;;;;;;;22.27;9.80;;;;;;;;;;5052883;28;20487;-76
2023/05/14 04:35:23;;;;;;;19.65;8.45;;;;;;;;;;5070376;28;20466;-76
2023/05/14 04:37:49;;;;;;;21.15;10.50;;;;;;;;;;5065677;28;20041;-76
2023/05/14 04:40:16;;;;;;;20.08;10.40;;;;;;;;;;5052985;28;20071;-76
2023/05/14 04:42:42;;;;;;;22.08;11.02;;;;;;;;;;5052764;28;20049;-76
2023/05/14 04:45:09;;;;;;;22.25;12.13;;;;;;;;;;5057170;28;20091;-76
2023/05/14 04:47:35;;;;;;;22.00;12.10;;;;;;;;;;5052813;28;20045;-76
2023/05/14 04:50:01;;;;;;;22.67;12.52;;;;;;;;;;5062818;28;20041;-76
2023/05/14 04:52:27;;;;;;;26.08;13.13;;;;;;;;;;5052282;28;20463;-76
2023/05/14 04:54:53;;;;;;;26.70;13.23;;;;;;;;;;5072023;28;20432;-76
2023/05/14 04:57:20;;;;;;;23.80;12.25;;;;;;;;;;5069660;28;20065;-76
2023/05/14 04:59:46;;;;;;;29.13;13.75;;;;;;;;;;5052227;28;20072;-76
2023/05/14 05:02:12;;;;;;;29.65;15.20;;;;;;;;;;5064968;28;20049;-76
2023/05/14 05:04:38;;;;;;;28.80;14.68;;;;;;;;;;5062174;28;20395;-76
2023/05/14 05:07:05;;;;;;;28.73;14.68;;;;;;;;;;5070113;28;20382;-76
2023/05/14 05:09:31;;;;;;;27.67;14.57;;;;;;;;;;5075758;28;20522;-76
2023/05/14 05:11:57;;;;;;;27.45;12.73;;;;;;;;;;5076272;28;20041;-76
2023/05/14 05:14:23;;;;;;;21.48;12.75;;;;;;;;;;5058638;28;20044;-76
2023/05/14 05:16:50;;;;;;;20.63;11.18;;;;;;;;;;5058591;28;20041;-80
2023/05/14 05:19:16;;;;;;;21.33;11.73;;;;;;;;;;5056163;28;20077;-76
2023/05/14 05:21:42;;;;;;;21.83;9.85;;;;;;;;;;5075246;28;20051;-76
2023/05/14 05:24:08;;;;;;;19.88;9.85;;;;;;;;;;5066188;28;20067;-76
2023/05/14 05:26:37;;;;;;;22.60;11.40;;;;;;;;;;5072297;28;20037;-76
2023/05/14 05:29:07;;;;;;;16.92;9.82;;;;;;;;;;5053278;28;20049;-76
2023/05/14 05:31:33;;;;;;;16.70;8.75;;;;;;;;;;5056526;28;20126;-76
2023/05/14 05:33:59;;;;;;;15.00;9.55;;;;;;;;;;5056645;28;20443;-76
2023/05/14 05:36:26;;;;;;;17.27;9.07;;;;;;;;;;5076215;28;20182;-75
2023/05/14 05:38:52;;;;;;;16.65;9.02;;;;;;;;;;5061961;28;20040;-75
2023/05/14 05:41:18;;;;;;;20.20;9.13;;;;;;;;;;5061102;28;20055;-75
2023/05/14 05:43:44;;;;;;;18.92;9.00;;;;;;;;;;5068617;28;20037;-75
2023/05/14 05:46:10;;;;;;;14.90;8.65;;;;;;;;;;5047180;28;20040;-76
2023/05/14 05:48:36;;;;;;;18.50;8.57;;;;;;;;;;5041346;28;20084;-76
2023/05/14 05:51:02;;;;;;;17.92;8.43;;;;;;;;;;5054113;28;20446;-75
2023/05/14 05:53:28;;;;;;;20.60;9.18;;;;;;;;;;5071935;28;20133;-76
2023/05/14 05:55:54;;;;;;;20.20;9.25;;;;;;;;;;5051318;28;20048;-75
2023/05/14 05:58:20;;;;;;;16.10;8.48;;;;;;;;;;5055575;28;20036;-75
2023/05/14 06:00:46;;;;;;;18.27;9.60;;;;;;;;;;5071834;28;20099;-75
2023/05/14 06:03:13;;;;;;;19.38;9.60;;;;;;;;;;5056169;28;20044;-75
2023/05/14 06:05:39;;;;;;;16.85;8.45;;;;;;;;;;5049519;28;20430;-75
2023/05/14 06:08:05;;;;;;;19.60;8.38;;;;;;;;;;5037196;28;20057;-75
2023/05/14 06:10:33;;;;;;;17.10;7.97;;;;;;;;;;5057172;28;20114;-75
2023/05/14 06:12:59;;;;;;;16.92;8.45;;;;;;;;;;5067811;28;20102;-75
2023/05/14 06:15:25;;;;;;;21.17;8.30;;;;;;;;;;5055895;28;20082;-75
2023/05/14 06:17:51;;;;;;;14.77;8.05;;;;;;;;;;5067452;28;20462;-75
2023/05/14 06:20:18;;;;;;;15.23;7.22;;;;;;;;;;5064419;28;20076;-75
2023/05/14 06:22:44;;;;;;;16.48;6.65;;;;;;;;;;5049121;28;20047;-75
2023/05/14 06:25:10;;;;;;;14.55;7.45;;;;;;;;;;5065460;28;20487;-75
2023/05/14 06:27:36;;;;;;;13.63;6.70;;;;;;;;;;5055293;28;20098;-75
2023/05/14 06:30:03;;;;;;;14.48;7.65;;;;;;;;;;5051340;28;20041;-75
2023/05/14 06:32:29;;;;;;;17.42;7.05;;;;;;;;;;5064562;28;20075;-76
2023/05/14 06:34:55;;;;;;;15.38;7.53;;;;;;;;;;5067972;28;20045;-75
2023/05/14 06:37:21;;;;;;;14.32;7.78;;;;;;;;;;5059139;28;20048;-75
2023/05/14 06:39:49;;;;;;;15.82;7.18;;;;;;;;;;5060688;28;20049;-76
2023/05/14 06:42:18;;;;;;;15.93;6.68;;;;;;;;;;5058071;28;20064;-75
2023/05/14 06:44:44;;;;;;;12.30;6.50;;;;;;;;;;5069621;28;20102;-76
2023/05/14 06:47:10;;;;;;;14.07;7.93;;;;;;;;;;5052601;28;20048;-76
2023/05/14 06:49:37;;;;;;;15.77;6.63;;;;;;;;;;5052652;28;20044;-78
2023/05/14 06:52:03;;;;;;;13.55;6.60;;;;;;;;;;5071271;28;20071;-75
2023/05/14 06:54:30;;;;;;;15.90;7.03;;;;;;;;;;5052006;28;20040;-77
2023/05/14 06:56:56;;;;;;;13.55;6.97;;;;;;;;;;5051253;28;20040;-76
2023/05/14 06:59:22;;;;;;;11.07;6.35;;;;;;;;;;5066034;28;20045;-76
2023/05/14 07:01:48;;;;;;;12.32;6.47;;;;;;;;;;5069812;28;20471;-76
2023/05/14 07:04:15;;;;;;;13.85;6.35;;;;;;;;;;5054025;28;20037;-76
2023/05/14 07:06:41;;;;;;;9.93;6.75;;;;;;;;;;5053541;28;20052;-76
2023/05/14 07:09:07;;;;;;;16.45;6.70;;;;;;;;;;5054636;28;20425;-76
2023/05/14 07:11:33;;;;;;;10.90;6.47;;;;;;;;;;5052724;28;20056;-76
2023/05/14 07:13:59;;;;;;;13.20;7.03;;;;;;;;;;5071289;28;20127;-76
2023/05/14 07:16:26;;;;;;;14.07;6.93;;;;;;;;;;5054256;28;20083;-76
2023/05/14 07:18:52;;;;;;;14.43;6.88;;;;;;;;;;5054883;28;20041;-76
2023/05/14 07:21:18;;;;;;;20.17;7.50;;;;;;;;;;5050343;28;20033;-76
2023/05/14 07:23:44;;;;;;;12.95;7.25;;;;;;;;;;5054106;28;20055;-76
2023/05/14 07:26:10;;;;;;;16.20;8.30;;;;;;;;;;5055355;28;20037;-76
2023/05/14 07:28:36;;;;;;;17.13;8.48;;;;;;;;;;5035452;28;20442;-76
2023/05/14 07:31:07;;;;;;;14.23;6.00;;;;;;;;;;5056445;28;20425;-76
2023/05/14 07:33:33;;;;;;;11.60;7.32;;;;;;;;;;5035913;28;20095;-76
2023/05/14 07:35:59;;;;;;;9.98;5.97;;;;;;;;;;5058417;28;20045;-76
2023/05/14 07:38:25;;;;;;;11.10;6.82;;;;;;;;;;5033973;28;20148;-76
2023/05/14 07:40:51;;;;;;;14.68;7.05;;;;;;;;;;5059452;28;20037;-76
2023/05/14 07:43:17;;;;;;;16.02;7.22;;;;;;;;;;5019055;28;20053;-76
2023/05/14 07:45:44;;;;;;;24.75;8.55;;;;;;;;;;5035232;28;20453;-76
2023/05/14 07:48:10;;;;;;;11.18;6.85;;;;;;;;;;5052939;28;20041;-76
2023/05/14 07:50:37;;;;;;;14.63;6.75;;;;;;;;;;5052711;28;20076;-76
2023/05/14 07:53:03;;;;;;;16.35;5.95;;;;;;;;;;5057272;28;20080;-76
2023/05/14 07:55:29;;;;;;;14.65;6.13;;;;;;;;;;5050305;28;20052;-76
2023/05/14 07:57:55;;;;;;;13.27;6.93;;;;;;;;;;5070312;28;20036;-76
2023/05/14 08:00:21;;;;;;;14.68;7.20;;;;;;;;;;5054234;28;20053;-76
2023/05/14 08:02:48;;;;;;;18.20;7.03;;;;;;;;;;5053216;28;20399;-76
2023/05/14 08:05:14;;;;;;;15.35;7.10;;;;;;;;;;5049984;28;20040;-76
2023/05/14 08:07:40;;;;;;;14.70;7.32;;;;;;;;;;5064355;28;20160;-77
2023/05/14 08:10:07;;;;;;;12.65;6.68;;;;;;;;;;5054118;28;20127;-76
2023/05/14 08:12:33;;;;;;;10.05;6.20;;;;;;;;;;5056824;28;20072;-76
2023/05/14 08:14:59;;;;;;;13.32;7.88;;;;;;;;;;5034962;28;20041;-76
2023/05/14 08:17:25;;;;;;;13.05;7.22;;;;;;;;;;5034682;28;20051;-76
2023/05/14 08:19:52;;;;;;;12.65;6.90;;;;;;;;;;5072212;28;20441;-76
2023/05/14 08:22:18;;;;;;;15.18;7.07;;;;;;;;;;5051776;28;20102;-76
2023/05/14 08:24:44;;;;;;;13.23;6.80;;;;;;;;;;5054380;28;20127;-76
2023/05/14 08:27:10;;;;;;;14.25;7.18;;;;;;;;;;5054190;28;20080;-76
2023/05/14 08:29:37;;;;;;;18.10;7.63;;;;;;;;;;5051255;28;20049;-76
2023/05/14 08:32:04;;;;;;;12.20;7.07;;;;;;;;;;5051817;28;20131;-76
2023/05/14 08:34:30;;;;;;;16.55;7.85;;;;;;;;;;5039796;28;20041;-76
2023/05/14 08:36:56;;;;;;;11.98;6.90;;;;;;;;;;5063335;28;20036;-76
2023/05/14 08:39:22;;;;;;;17.05;7.20;;;;;;;;;;5068936;28;20447;-76
2023/05/14 08:41:48;;;;;;;11.32;6.97;;;;;;;;;;5040938;28;20044;-76
2023/05/14 08:44:14;;;;;;;14.45;7.40;;;;;;;;;;5031795;28;20458;-76
2023/05/14 08:46:40;;;;;;;16.08;7.18;;;;;;;;;;5041778;28;20068;-76
2023/05/14 08:49:25;;;;;;;8.60;6.80;;;;;;;;;;5048922;28;20049;-76
2023/05/14 08:51:51;;;;;;;15.43;7.25;;;;;;;;;;5049122;28;20048;-76
2023/05/14 08:54:17;;;;;;;12.88;7.35;;;;;;;;;;5061406;28;20487;-76
2023/05/14 08:56:47;;;;;;;11.98;7.30;;;;;;;;;;5056362;28;20052;-76
2023/05/14 08:59:16;;;;;;;14.20;7.72;;;;;;;;;;5069404;28;20356;-76
2023/05/14 09:01:51;;;;;;;11.73;7.75;;;;;;;;;;5055418;28;20051;-76
2023/05/14 09:04:19;;;;;;;22.27;8.05;;;;;;;;;;5073604;28;20359;-76
2023/05/14 09:06:48;;;;;;;15.60;7.35;;;;;;;;;;5054810;28;20071;-76
2023/05/14 09:09:14;;;;;;;14.98;7.43;;;;;;;;;;5066197;28;20420;-76
2023/05/14 09:11:49;;;;;;;12.73;7.50;;;;;;;;;;5041231;28;20044;-76
2023/05/14 09:14:16;;;;;;;15.52;7.72;;;;;;;;;;5056717;28;20122;-76
2023/05/14 09:16:44;;;;;;;12.38;7.22;;;;;;;;;;5054189;28;20040;-76
2023/05/14 09:19:11;;;;;;;15.40;8.23;;;;;;;;;;5057238;28;20069;-76
2023/05/14 09:21:37;;;;;;;14.57;7.75;;;;;;;;;;5056904;28;20044;-76
2023/05/14 09:24:03;;;;;;;13.55;8.30;;;;;;;;;;5075251;28;20045;-76
2023/05/14 09:26:31;;;;;;;13.30;7.45;;;;;;;;;;5057752;28;20048;-76
2023/05/14 09:29:01;;;;;;;16.50;8.27;;;;;;;;;;5057681;28;20048;-76
2023/05/14 09:31:29;;;;;;;16.70;8.75;;;;;;;;;;5066017;28;20429;-76
2023/05/14 09:33:55;;;;;;;16.30;9.30;;;;;;;;;;5060268;28;20123;-76
2023/05/14 09:36:21;;;;;;;16.58;8.60;;;;;;;;;;5060506;28;20044;-76
2023/05/14 09:38:47;;;;;;;14.88;8.25;;;;;;;;;;5070787;28;20040;-76
2023/05/14 09:41:13;;;;;;;13.35;8.57;;;;;;;;;;5054306;28;20128;-76
2023/05/14 09:43:40;;;;;;;15.63;9.10;;;;;;;;;;5054500;28;20490;-76
2023/05/14 09:46:06;;;;;;;14.27;8.00;;;;;;;;;;5039157;28;20049;-77
2023/05/14 09:48:32;;;;;;;11.43;8.23;;;;;;;;;;5057281;28;20041;-76
2023/05/14 09:50:58;;;;;;;10.82;7.60;;;;;;;;;;5056815;28;20050;-77
2023/05/14 09:53:24;;;;;;;13.73;8.90;;;;;;;;;;5055610;28;20056;-77
2023/05/14 09:55:50;;;;;;;15.02;8.60;;;;;;;;;;5053395;28;20044;-76
2023/05/14 09:58:17;;;;;;;13.98;8.35;;;;;;;;;;5053721;28;20102;-76
2023/05/14 10:00:46;;;;;;;14.18;8.35;;;;;;;;;;5044435;28;20106;-77
2023/05/14 10:03:13;;;;;;;17.50;8.95;;;;;;;;;;5057006;28;20086;-76
2023/05/14 10:05:40;;;;;;;14.13;9.32;;;;;;;;;;5068387;28;20101;-76
2023/05/14 10:08:13;;;;;;;13.38;8.93;;;;;;;;;;5060551;28;20053;-76
2023/05/14 10:10:39;;;;;;;14.70;8.60;;;;;;;;;;5074070;28;20513;-76
2023/05/14 10:13:11;;;;;;;17.48;9.35;;;;;;;;;;5069845;28;20041;-76
2023/05/14 10:15:40;;;;;;;16.58;9.55;;;;;;;;;;5045488;28;20044;-77
2023/05/14 10:18:10;;;;;;;17.58;9.65;;;;;;;;;;5056399;28;20094;-77
2023/05/14 10:20:37;;;;;;;14.60;8.68;;;;;;;;;;5074192;28;20116;-76
2023/05/14 10:23:03;;;;;;;19.33;9.35;;;;;;;;;;5056712;28;20095;-76
2023/05/14 10:25:30;;;;;;;14.20;8.98;;;;;;;;;;5054802;28;20480;-76
2023/05/14 10:27:56;;;;;;;16.45;9.73;;;;;;;;;;5056704;28;20045;-76
2023/05/14 10:30:22;;;;;;;18.05;10.30;;;;;;;;;;5049132;28;20048;-77
2023/05/14 10:32:48;;;;;;;16.30;8.90;;;;;;;;;;5055363;28;20049;-77
2023/05/14 10:35:16;;;;;;;13.63;8.38;;;;;;;;;;5024061;28;20497;-77
2023/05/14 10:37:43;;;;;;;14.68;9.95;;;;;;;;;;5073312;28;20114;-77
2023/05/14 10:40:09;;;;;;;12.82;9.38;;;;;;;;;;5072963;28;20056;-77
2023/05/14 10:42:42;;;;;;;23.23;10.43;;;;;;;;;;5059110;28;20367;-77
2023/05/14 10:45:09;;;;;;;17.48;10.52;;;;;;;;;;5071531;28;20430;-77
2023/05/14 10:47:35;;;;;;;15.35;9.20;;;;;;;;;;5064932;28;20094;-77
2023/05/14 10:50:02;;;;;;;17.52;9.50;;;;;;;;;;5063889;28;20052;-76
2023/05/14 10:52:29;;;;;;;16.02;9.57;;;;;;;;;;5067023;28;20048;-77
2023/05/14 10:54:56;;;;;;;17.75;9.80;;;;;;;;;;5064706;28;20045;-77
2023/05/14 10:57:25;;;;;;;19.00;9.55;;;;;;;;;;5065296;28;20099;-77
2023/05/14 10:59:53;;;;;;;14.80;9.35;;;;;;;;;;5070345;28;20041;-77
2023/05/14 11:02:20;;;;;;;19.60;9.35;;;;;;;;;;5070500;28;20044;-76
2023/05/14 11:04:54;;;;;;;12.50;9.75;;;;;;;;;;5064393;28;20051;-77
2023/05/14 11:07:23;;;;;;;17.60;11.27;;;;;;;;;;5053961;28;20060;-76
2023/05/14 11:09:50;;;;;;;14.57;9.80;;;;;;;;;;5072227;28;20136;-76
2023/05/14 11:12:18;;;;;;;15.48;10.23;;;;;;;;;;5070410;28;20052;-77
2023/05/14 11:14:44;;;;;;;15.40;9.85;;;;;;;;;;5059821;28;20048;-77
2023/05/14 11:17:11;;;;;;;16.60;11.35;;;;;;;;;;5073179;28;20036;-77
2023/05/14 11:19:37;;;;;;;13.70;10.35;;;;;;;;;;5057972;28;20125;-77
2023/05/14 11:22:03;;;;;;;16.90;11.15;;;;;;;;;;5053797;28;20072;-77
2023/05/14 11:24:29;;;;;;;15.55;10.98;;;;;;;;;;5054088;28;20110;-77
2023/05/14 11:26:55;;;;;;;13.18;9.60;;;;;;;;;;5060282;28;20502;-77
2023/05/14 11:29:21;;;;;;;15.38;10.50;;;;;;;;;;5071098;28;20047;-78
2023/05/14 11:31:47;;;;;;;16.30;10.30;;;;;;;;;;5073076;28;20083;-76
2023/05/14 11:34:13;;;;;;;18.95;10.55;;;;;;;;;;5057356;28;20049;-76
2023/05/14 11:36:41;;;;;;;16.02;10.60;;;;;;;;;;5053994;28;20091;-76
2023/05/14 11:39:07;;;;;;;16.75;10.38;;;;;;;;;;5053709;28;20129;-76
2023/05/14 11:41:33;;;;;;;17.77;10.32;;;;;;;;;;5053543;28;20139;-76
2023/05/14 11:43:59;;;;;;;16.00;10.25;;;;;;;;;;5060354;28;20089;-77
2023/05/14 11:46:25;;;;;;;16.60;10.55;;;;;;;;;;5063708;28;20503;-77
2023/05/14 11:48:51;;;;;;;17.35;10.90;;;;;;;;;;5061039;28;20045;-77
2023/05/14 11:51:17;;;;;;;17.27;10.65;;;;;;;;;;5054789;28;20114;-77
2023/05/14 11:53:45;;;;;;;15.68;9.95;;;;;;;;;;5058457;28;20041;-77
2023/05/14 11:56:11;;;;;;;17.85;10.75;;;;;;;;;;5060460;28;20364;-77
2023/05/14 11:58:37;;;;;;;14.88;11.02;;;;;;;;;;5064972;28;20037;-79
2023/05/14 12:01:03;;;;;;;18.38;11.15;;;;;;;;;;5065371;28;20051;-78
2023/05/14 12:03:29;;;;;;;17.20;11.55;;;;;;;;;;5070808;28;20120;-79
2023/05/14 12:05:56;;;;;;;14.27;10.98;;;;;;;;;;5073422;28;20479;-77
2023/05/14 12:08:25;;;;;;;16.35;11.52;;;;;;;;;;5054095;28;20048;-78
2023/05/14 12:10:52;;;;;;;15.07;11.57;;;;;;;;;;5053306;28;20048;-78
2023/05/14 12:13:19;;;;;;;14.60;10.60;;;;;;;;;;5050881;28;20045;-78
2023/05/14 12:15:54;;;;;;;18.38;11.15;;;;;;;;;;5047709;28;20048;-78
2023/05/14 12:18:20;;;;;;;16.03;10.23;;;;;;;;;;5053280;28;20510;-78
2023/05/14 12:20:50;;;;;;;17.17;11.25;;;;;;;;;;5053296;28;20045;-78
2023/05/14 12:23:16;;;;;;;17.15;10.70;;;;;;;;;;5045150;28;20111;-78
2023/05/14 12:25:49;;;;;;;16.38;12.50;;;;;;;;;;5040580;28;20049;-78
2023/05/14 12:28:16;;;;;;;14.70;11.57;;;;;;;;;;5038732;28;20037;-78
2023/05/14 12:30:42;;;;;;;19.15;10.75;;;;;;;;;;5040932;28;20041;-78
2023/05/14 12:33:08;;;;;;;17.50;11.45;;;;;;;;;;5033203;28;20041;-78
2023/05/14 12:35:37;;;;;;;18.08;10.68;;;;;;;;;;5050031;28;20099;-78
2023/05/14 12:38:03;;;;;;;16.95;12.10;;;;;;;;;;5042832;28;20540;-78
2023/05/14 12:40:30;;;;;;;16.20;12.18;;;;;;;;;;5039177;28;20220;-78
2023/05/14 12:42:56;;;;;;;19.02;12.75;;;;;;;;;;5032791;28;20476;-78
2023/05/14 12:45:22;;;;;;;14.63;12.02;;;;;;;;;;5047392;28;20092;-78
2023/05/14 12:47:48;;;;;;;16.73;12.15;;;;;;;;;;5052740;28;20491;-78
2023/05/14 12:50:15;;;;;;;17.75;12.27;;;;;;;;;;5043694;28;20048;-78
2023/05/14 12:52:41;;;;;;;19.67;11.70;;;;;;;;;;5034654;28;20054;-78
2023/05/14 12:55:08;;;;;;;15.80;12.10;;;;;;;;;;5045857;28;20041;-78
2023/05/14 12:57:34;;;;;;;17.90;12.00;;;;;;;;;;5038878;28;20060;-78
2023/05/14 13:00:00;;;;;;;16.13;11.43;;;;;;;;;;5053860;28;20518;-79
2023/05/14 13:02:26;;;;;;;17.90;12.15;;;;;;;;;;5048812;28;20094;-78
2023/05/14 13:04:52;;;;;;;16.48;11.90;;;;;;;;;;5045545;28;20044;-78
2023/05/14 13:07:18;;;;;;;18.52;12.60;;;;;;;;;;5046162;28;20048;-79
2023/05/14 13:09:44;;;;;;;17.02;12.32;;;;;;;;;;5066133;28;20056;-78
2023/05/14 13:12:10;;;;;;;18.05;12.23;;;;;;;;;;5055055;28;20128;-78
2023/05/14 13:14:36;;;;;;;21.77;12.52;;;;;;;;;;5037298;28;20477;-78
2023/05/14 13:17:03;;;;;;;21.75;12.52;;;;;;;;;;5062082;28;20041;-78
2023/05/14 13:19:29;;;;;;;17.88;11.82;;;;;;;;;;5052703;28;20041;-78
2023/05/14 13:21:55;;;;;;;18.92;12.70;;;;;;;;;;5053315;28;20048;-78
2023/05/14 13:24:23;;;;;;;19.10;13.10;;;;;;;;;;5058209;28;20048;-78
2023/05/14 13:26:49;;;;;;;23.67;12.52;;;;;;;;;;5066791;28;20045;-78
2023/05/14 13:29:15;;;;;;;27.75;13.27;;;;;;;;;;5075858;28;20055;-78
2023/05/14 13:31:41;;;;;;;17.77;12.40;;;;;;;;;;5076854;28;20053;-77
2023/05/14 13:34:09;;;;;;;18.25;12.70;;;;;;;;;;5071760;28;20047;-77
2023/05/14 13:36:38;;;;;;;16.45;12.52;;;;;;;;;;5060114;28;20049;-77
2023/05/14 13:39:05;;;;;;;20.15;13.30;;;;;;;;;;5054835;28;20131;-77
2023/05/14 13:41:33;;;;;;;18.67;12.75;;;;;;;;;;5055431;28;20138;-77
2023/05/14 13:44:00;;;;;;;18.98;13.65;;;;;;;;;;5037480;28;20101;-77
2023/05/14 13:46:26;;;;;;;22.45;14.07;;;;;;;;;;5066460;28;20504;-77
2023/05/14 13:48:52;;;;;;;22.33;13.80;;;;;;;;;;5062589;28;20041;-77
2023/05/14 13:51:18;;;;;;;20.25;15.10;;;;;;;;;;5068559;28;20045;-77
2023/05/14 13:53:44;;;;;;;22.95;13.02;;;;;;;;;;5057945;28;20040;-76
2023/05/14 13:56:10;;;;;;;17.20;13.63;;;;;;;;;;5059175;28;20073;-76
2023/05/14 13:58:36;;;;;;;18.55;13.63;;;;;;;;;;5038392;28;20440;-77
2023/05/14 14:01:02;;;;;;;19.08;14.07;;;;;;;;;;5074271;28;20456;-77
2023/05/14 14:03:28;;;;;;;20.38;13.38;;;;;;;;;;5095729;28;20405;-77
2023/05/14 14:05:54;;;;;;;17.20;13.57;;;;;;;;;;5096257;28;20048;-78
2023/05/14 14:08:20;;;;;;;19.48;13.43;;;;;;;;;;5071638;28;20049;-78
2023/05/14 14:10:47;;;;;;;22.50;14.05;;;;;;;;;;5037449;28;20045;-78
2023/05/14 14:13:13;;;;;;;19.73;13.45;;;;;;;;;;5038003;28;20045;-78
2023/05/14 14:15:39;;;;;;;17.83;12.95;;;;;;;;;;5056028;28;20048;-78
2023/05/14 14:18:05;;;;;;;21.02;14.75;;;;;;;;;;5037727;28;20064;-78
2023/05/14 14:20:32;;;;;;;19.20;13.23;;;;;;;;;;5037684;28;20045;-78